Latest Weather Observations for Urandangi

IDQ60801

Issued at 9:32 am EST Saturday 23 May 2015 (issued every 30 minutes, with the page automatically refreshed every 10 minutes)

About weather observations | Map of weather stations | Latest weather observations for QLD | Other Formats
Station Details ID: 037058 Name: URANDANGI AERODROME Lat: -21.60 Lon: 138.37 Height: 178.6 m
Data from the previous 72 hours. | See also: Recent months at Urandangi
Date/Time
EST
Temp
°C
App
Temp
°C
Dew
Point
Rel
Hum
%
Delta-T
°C
Wind Press
QNH
hPa
Press
MSL
hPa
Rain
since 9 am
mm
Dir
 
Spd
km/h
Gust
km/h
Spd
kts
Gust
kts
23/09:30am 13.8 7.6 2.1 45 5.1 SE 24 35 13 19 1025.0 1024.5 0.0
23/09:00am 12.6 6.7 1.6 47 4.7 SE 22 28 12 15 1025.0 1024.5 0.0
23/08:30am 10.9 5.4 0.9 50 4.2 SE 19 24 10 13 1025.0 1024.5 0.0
23/08:00am 9.3 4.5 0.5 54 3.6 SE 15 20 8 11 1024.7 1024.2 0.0
23/07:30am 7.5 3.0 -0.2 58 3.0 SE 13 15 7 8 1024.5 1024.0 0.0
23/07:00am 8.1 3.7 0.1 57 3.2 SE 13 19 7 10 1024.3 1023.8 0.0
23/06:30am 8.3 3.5 0.1 56 3.3 SSE 15 19 8 10 1024.1 1023.6 0.0
23/06:00am 8.2 4.1 0.0 56 3.2 SSE 11 15 6 8 1024.0 1023.5 0.0
23/05:30am 8.3 3.8 -0.4 54 3.4 S 13 17 7 9 1023.8 1023.3 0.0
23/05:00am 8.7 4.6 -0.3 53 3.6 S 11 15 6 8 1023.8 1023.3 0.0
23/04:30am 8.8 4.3 -0.5 52 3.7 S 13 17 7 9 1023.4 1023.0 0.0
23/04:00am 9.1 4.5 -0.8 50 3.9 SSE 13 17 7 9 1023.5 1023.1 0.0
23/03:30am 9.5 4.9 -0.7 49 4.1 SSE 13 17 7 9 1023.4 1023.0 0.0
23/03:00am 9.7 5.1 -0.8 48 4.1 SSE 13 17 7 9 1023.5 1023.1 0.0
23/02:30am 9.8 5.2 -1.0 47 4.3 SE 13 15 7 8 1023.3 1022.9 0.0
23/02:00am 10.2 5.6 -0.9 46 4.4 SE 13 15 7 8 1023.8 1023.3 0.0
23/01:30am 10.7 6.1 -0.7 45 4.6 SSE 13 15 7 8 1024.2 1023.7 0.0
23/01:00am 10.7 6.5 -1.0 44 4.6 SSE 11 15 6 8 1024.2 1023.7 0.0
23/12:30am 10.7 6.1 -0.7 45 4.6 SSE 13 17 7 9 1024.3 1023.8 0.0
23/12:00am 10.9 6.3 -1.2 43 4.8 S 13 15 7 8 1024.6 1024.1 0.0
 
Date/Time
EST
Temp
°C
App
Temp
°C
Dew
Point
Rel
Hum
%
Delta-T
°C
Wind Press
QNH
hPa
Press
MSL
hPa
Rain
since 9 am
mm
Dir
 
Spd
km/h
Gust
km/h
Spd
kts
Gust
kts
22/11:30pm 10.9 6.7 -0.9 44 4.7 S 11 13 6 7 1024.7 1024.2 0.0
22/11:00pm 10.8 6.5 -1.3 43 4.8 S 11 13 6 7 1024.6 1024.1 0.0
22/10:30pm 11.2 6.9 -1.5 41 5.0 S 11 13 6 7 1025.0 1024.5 0.0
22/10:00pm 12.2 7.9 -2.0 37 5.6 S 11 13 6 7 1025.0 1024.5 0.0
22/09:30pm 12.6 8.2 -2.1 36 5.8 SSE 11 13 6 7 1024.7 1024.2 0.0
22/09:00pm 13.3 8.9 -2.6 33 6.3 SE 11 13 6 7 1024.3 1023.8 0.0
22/08:30pm 14.1 9.7 -2.8 31 6.7 SE 11 13 6 7 1024.1 1023.6 0.0
22/08:00pm 16.0 10.9 -2.0 29 7.4 SSE 15 19 8 10 1024.1 1023.6 0.0
22/07:30pm 16.7 11.2 -2.4 27 7.9 SSE 17 20 9 11 1023.6 1023.2 0.0
22/07:00pm 17.1 12.0 -2.0 27 7.9 SSE 15 19 8 10 1023.5 1023.1 0.0
22/06:30pm 17.9 12.7 -2.9 24 8.5 SSE 15 20 8 11 1023.5 1023.1 0.0
22/06:00pm 19.1 12.5 -3.1 22 9.2 SSE 22 28 12 15 1023.1 1022.6 0.0
22/05:30pm 19.9 13.3 -3.0 21 9.6 SE 22 32 12 17 1022.7 1022.2 0.0
22/05:00pm 20.5 13.5 -3.9 19 10.1 SE 24 35 13 19 1022.5 1022.0 0.0
22/04:30pm 20.8 13.9 -3.0 20 10.1 SSE 24 33 13 18 1022.5 1022.0 0.0
22/04:00pm 20.7 13.8 -2.4 21 9.8 SSE 24 35 13 19 1022.6 1022.1 0.0
22/03:30pm 21.0 14.2 -2.1 21 10.0 SSE 24 33 13 18 1022.7 1022.2 0.0
22/03:00pm 21.0 14.5 -2.8 20 10.1 SSE 22 35 12 19 1023.1 1022.6 0.0
22/02:30pm 21.0 14.5 -2.1 21 10.0 SSE 22 35 12 19 1023.3 1022.9 0.0
22/02:00pm 20.1 13.7 -1.7 23 9.4 SE 22 33 12 18 1023.5 1023.1 0.0
22/01:30pm 19.8 12.6 -1.9 23 9.3 SE 26 39 14 21 1024.1 1023.6 0.0
22/01:00pm 19.4 12.3 -1.1 25 8.8 SE 26 39 14 21 1024.7 1024.2 0.0
22/12:30pm 18.9 12.1 -2.1 24 8.9 SE 24 37 13 20 1025.2 1024.7 0.0
22/12:00pm 18.3 11.2 -1.0 27 8.3 SE 26 35 14 19 1025.7 1025.2 0.0
22/11:30am 17.2 9.5 -0.1 31 7.5 SE 30 43 16 23 1026.2 1025.7 0.0
22/11:00am 16.4 8.4 0.5 34 6.9 SE 32 39 17 21 1026.7 1026.2 0.0
22/10:30am 16.1 8.6 1.0 36 6.6 SE 30 43 16 23 1027.0 1026.5 0.0
22/10:00am 15.1 7.7 1.6 40 5.9 SE 30 39 16 21 1027.1 1026.6 0.0
22/09:30am 13.6 6.2 1.6 44 5.2 SE 30 41 16 22 1026.8 1026.3 0.0
22/09:00am 12.5 6.1 1.2 46 4.8 SE 24 32 13 17 1026.7 1026.2 0.0
22/08:30am 11.5 6.0 0.9 48 4.5 SSE 19 24 10 13 1026.5 1026.0 0.0
22/08:00am 10.1 6.1 0.7 52 3.9 SSE 11 17 6 9 1026.1 1025.6 0.0
22/07:30am 8.8 4.8 0.5 56 3.4 SSE 11 15 6 8 1025.8 1025.3 0.0
22/07:00am 9.0 4.6 0.5 55 3.4 SSE 13 17 7 9 1025.3 1024.8 0.0
22/06:30am 9.9 5.5 0.5 52 3.9 SSE 13 19 7 10 1025.0 1024.5 0.0
22/06:00am 10.5 5.8 0.8 51 4.0 SSE 15 22 8 12 1024.7 1024.2 0.0
22/05:30am 11.1 6.1 1.1 50 4.2 SSE 17 22 9 12 1024.6 1024.1 0.0
22/05:00am 11.8 6.4 1.4 49 4.4 SSE 19 26 10 14 1024.4 1023.9 0.0
22/04:30am 12.4 6.9 1.7 48 4.6 SSE 20 28 11 15 1024.3 1023.8 0.0
22/04:00am 12.7 7.3 2.3 49 4.5 SSE 20 28 11 15 1024.3 1023.8 0.0
22/03:30am 13.1 7.7 2.4 48 4.7 SSE 20 28 11 15 1024.1 1023.6 0.0
22/03:00am 13.3 8.1 2.5 48 4.8 SSE 19 24 10 13 1024.1 1023.6 0.0
22/02:30am 13.7 8.6 2.9 48 4.8 SSE 19 26 10 14 1024.3 1023.8 0.0
22/02:00am 14.3 9.0 3.2 47 5.0 SSE 20 26 11 14 1024.4 1023.9 0.0
22/01:30am 14.9 9.7 3.4 46 5.3 SSE 20 33 11 18 1024.5 1024.0 0.0
22/01:00am 15.2 10.0 3.4 45 5.4 SSE 20 30 11 16 1024.6 1024.1 0.0
22/12:30am 15.6 10.3 3.1 43 5.7 SSE 20 28 11 15 1024.6 1024.1 0.0
22/12:00am 16.3 10.2 3.0 41 6.1 SSE 24 35 13 19 1024.7 1024.2 0.0
 
Date/Time
EST
Temp
°C
App
Temp
°C
Dew
Point
Rel
Hum
%
Delta-T
°C
Wind Press
QNH
hPa
Press
MSL
hPa
Rain
since 9 am
mm
Dir
 
Spd
km/h
Gust
km/h
Spd
kts
Gust
kts
21/11:30pm 16.8 11.2 3.5 41 6.2 SSE 22 30 12 16 1024.8 1024.3 0.0
21/11:00pm 17.3 11.9 4.3 42 6.2 SSE 22 30 12 16 1024.8 1024.3 0.0
21/10:30pm 17.9 12.6 4.8 42 6.3 SSE 22 33 12 18 1024.7 1024.2 0.0
21/10:00pm 18.5 13.3 5.4 42 6.4 SSE 22 32 12 17 1024.7 1024.2 0.0
21/09:30pm 19.1 14.6 5.9 42 6.6 SSE 19 28 10 15 1024.3 1023.8 0.0
21/09:00pm 19.3 15.1 5.7 41 6.7 SSE 17 24 9 13 1024.1 1023.6 0.0
21/08:30pm 19.8 15.6 5.8 40 7.0 SSE 17 24 9 13 1023.6 1023.2 0.0
21/08:00pm 20.3 15.8 5.9 39 7.2 SSE 19 26 10 14 1023.4 1023.0 0.0
21/07:30pm 20.9 16.3 6.4 39 7.4 SSE 20 26 11 14 1023.0 1022.5 0.0
21/07:00pm 21.3 16.2 6.0 37 7.7 SSE 22 30 12 16 1022.5 1022.0 0.0
21/06:30pm 21.8 17.1 6.1 36 8.0 SSE 20 30 11 16 1022.1 1021.6 0.0
21/06:00pm 22.8 16.6 6.1 34 8.5 SSE 28 37 15 20 1021.9 1021.4 0.0
21/05:30pm 22.9 16.7 6.2 34 8.6 SSE 28 43 15 23 1021.8 1021.3 0.0
21/05:00pm 23.3 17.2 6.6 34 8.6 SSE 28 39 15 21 1021.3 1020.8 0.0
21/04:30pm 23.8 17.8 7.0 34 8.8 SSE 28 37 15 20 1021.2 1020.7 0.0
21/04:00pm 24.3 17.9 7.0 33 9.1 SSE 30 37 16 20 1021.2 1020.7 0.0
21/03:30pm 24.2 18.3 7.4 34 8.9 SSE 28 44 15 24 1021.2 1020.7 0.0
21/03:00pm 24.3 18.4 7.4 34 8.9 SSE 28 39 15 21 1021.3 1020.8 0.0
21/02:30pm 24.9 18.8 8.4 35 8.9 SSE 30 44 16 24 1021.4 1020.9 0.0
21/02:00pm 24.1 18.2 7.7 35 8.7 SSE 28 37 15 20 1021.6 1021.1 0.0
21/01:30pm 24.0 18.2 8.0 36 8.5 SSE 28 41 15 22 1022.0 1021.5 0.0
21/01:13pm 23.7 17.5 7.8 36 8.4 SSE 30 50 16 27 1022.4 1021.9 0.0
21/01:00pm 24.0 17.5 8.0 36 8.5 SE 32 43 17 23 1022.5 1022.0 0.0
21/12:30pm 23.2 16.9 8.9 40 7.7 SSE 32 43 17 23 1023.1 1022.6 0.0
21/12:00pm 23.1 16.7 8.4 39 7.8 SSE 32 43 17 23 1023.4 1023.0 0.0
21/11:30am 23.1 16.8 9.1 41 7.6 SSE 32 44 17 24 1023.6 1023.2 0.0
21/11:00am 22.1 16.0 8.2 41 7.3 SSE 30 39 16 21 1023.9 1023.4 0.0
21/10:30am 21.6 16.0 8.8 44 6.8 SSE 28 37 15 20 1024.0 1023.5 0.0
21/10:00am 20.9 15.4 9.2 47 6.2 SSE 28 39 15 21 1023.9 1023.4 0.0
21/09:30am 20.3 15.3 9.5 50 5.8 SSE 26 39 14 21 1023.4 1023.0 0.0
21/09:00am 19.4 14.5 9.9 54 5.1 SSE 26 33 14 18 1023.0 1022.5 0.0
21/08:30am 19.3 15.2 10.0 55 5.0 SSE 22 30 12 16 1022.9 1022.4 0.0
21/08:00am 18.0 15.1 9.6 58 4.4 SSE 15 20 8 11 1022.6 1022.1 0.0
21/07:30am 17.4 14.4 9.3 59 4.3 SSE 15 20 8 11 1022.2 1021.7 0.0
21/07:00am 16.8 14.1 9.0 60 4.0 SSE 13 17 7 9 1021.8 1021.3 0.0
21/06:30am 16.6 14.2 8.6 59 4.1 SSE 11 13 6 7 1021.2 1020.7 0.0
21/06:00am 16.6 13.7 8.3 58 4.2 SSE 13 15 7 8 1020.9 1020.4 0.0
21/05:30am 17.2 14.0 8.6 57 4.5 SSE 15 20 8 11 1020.6 1020.1 0.0
21/05:00am 17.5 13.9 8.4 55 4.7 SSE 17 24 9 13 1020.5 1020.0 0.0
21/04:30am 17.8 14.6 8.4 54 4.9 SSE 15 20 8 11 1020.3 1019.8 0.0
21/04:00am 17.9 14.3 8.2 53 5.0 SSE 17 20 9 11 1020.3 1019.8 0.0
21/03:30am 18.1 14.9 8.4 53 5.0 SSE 15 17 8 9 1019.9 1019.4 0.0
21/03:00am 18.0 15.1 8.3 53 5.0 SSE 13 17 7 9 1019.9 1019.4 0.0
21/02:30am 18.0 15.1 8.0 52 5.1 SSE 13 17 7 9 1020.0 1019.5 0.0
21/02:00am 18.2 15.6 7.9 51 5.3 SE 11 15 6 8 1019.9 1019.4 0.0
21/01:30am 18.5 15.9 7.9 50 5.5 SE 11 13 6 7 1020.1 1019.6 0.0
21/01:00am 19.0 16.0 7.8 48 5.8 SSE 13 17 7 9 1020.2 1019.7 0.0
21/12:30am 19.7 16.7 7.8 46 6.2 SE 13 19 7 10 1020.0 1019.5 0.0
21/12:00am 20.2 16.5 7.9 45 6.4 ESE 17 22 9 12 1020.1 1019.6 0.0
 
Date/Time
EST
Temp
°C
App
Temp
°C
Dew
Point
Rel
Hum
%
Delta-T
°C
Wind Press
QNH
hPa
Press
MSL
hPa
Rain
since 9 am
mm
Dir
 
Spd
km/h
Gust
km/h
Spd
kts
Gust
kts
20/11:30pm 20.6 16.5 7.9 44 6.6 SE 19 28 10 15 1020.1 1019.6 0.0
20/11:00pm 21.0 16.7 8.0 43 6.8 SE 20 28 11 15 1020.3 1019.8 0.0
20/10:30pm 21.4 17.1 8.0 42 7.0 SE 20 28 11 15 1020.2 1019.7 0.0
20/10:00pm 21.7 17.5 7.5 40 7.4 SE 19 24 10 13 1020.2 1019.7 0.0
20/09:30pm 22.2 17.8 7.6 39 7.7 SE 20 28 11 15 1020.1 1019.6 0.0
20/09:00pm 22.7 17.9 7.3 37 8.0 SSE 22 32 12 17 1019.6 1019.1 0.0
20/08:30pm 23.2 17.9 6.9 35 8.5 SSE 24 33 13 18 1019.2 1018.7 0.0
20/08:00pm 23.9 18.8 6.2 32 9.1 SSE 22 32 12 17 1018.7 1018.2 0.0
20/07:30pm 24.5 18.3 6.3 31 9.4 SSE 28 39 15 21 1018.2 1017.6 0.0
20/07:00pm 24.8 19.7 6.1 30 9.7 SSE 22 32 12 17 1017.6 1017.1 0.0
20/06:30pm 25.5 19.6 5.7 28 10.2 SSE 26 33 14 18 1017.1 1016.6 0.0
20/06:00pm 26.3 20.4 5.8 27 10.7 SSE 26 41 14 22 1016.3 1015.8 0.0
20/05:30pm 27.3 19.7 5.6 25 11.3 SSE 35 44 19 24 1015.7 1015.2 0.0
20/05:00pm 27.8 19.9 6.0 25 11.5 SSE 37 48 20 26 1015.5 1015.0 0.0
20/04:30pm 28.9 21.7 5.1 22 12.4 SSE 32 54 17 29 1014.8 1014.3 0.0
20/04:28pm 29.6 23.3 5.6 22 12.7 SSE 28 52 15 28 1014.7 1014.2 0.0
20/04:00pm 32.6 30.6 8.8 23 13.5 SSW 9 15 5 8 1014.3 1013.8 0.0
20/03:30pm 32.6 30.2 8.8 23 13.5 W 11 17 6 9 1014.4 1013.9 0.0
20/03:00pm 33.6 32.1 9.0 22 14.0 W 7 19 4 10 1014.4 1013.9 0.0
20/02:30pm 33.9 31.9 8.5 21 14.4 WSW 9 17 5 9 1014.6 1014.1 0.0
20/02:00pm 32.5 30.1 8.7 23 13.4 WNW 11 20 6 11 1015.0 1014.5 0.0
20/01:30pm 33.3 30.5 8.7 22 13.9 NW 13 19 7 10 1015.5 1015.0 0.0
20/01:00pm 32.9 31.2 9.7 24 13.3 NW 9 20 5 11 1016.0 1015.5 0.0
20/12:30pm 32.7 30.5 9.5 24 13.3 NNW 11 22 6 12 1016.4 1015.9 0.0
20/12:00pm 32.1 29.2 9.6 25 12.8 NNW 15 22 8 12 1016.9 1016.4 0.0
20/11:30am 31.8 28.6 9.9 26 12.6 N 17 22 9 12 1017.2 1016.7 0.0
20/11:00am 31.1 27.5 9.9 27 12.1 N 19 24 10 13 1017.5 1017.0 0.0
20/10:30am 30.6 27.3 9.5 27 12.0 N 17 24 9 13 1017.6 1017.1 0.0
20/10:00am 29.2 24.9 9.3 29 11.1 NNE 22 30 12 16 1017.5 1017.0 0.0

Other Formats:

Comma delimited format used in spreadsheet applications
http://www.bom.gov.au/fwo/IDQ60801/IDQ60801.94344.axf

JavaScript Object Notation format (JSON) in row-major order
http://www.bom.gov.au/fwo/IDQ60801/IDQ60801.94344.json